sensor_id;sensor_type;location;lat;lon;timestamp;temperature;humidity
27368;DHT22;14839;48.106;11.618;2024-03-02T05:02:38;6.70;94.60
27368;DHT22;14839;48.106;11.618;2024-03-02T05:05:04;6.60;94.60
27368;DHT22;14839;48.106;11.618;2024-03-02T05:07:29;6.60;94.60
27368;DHT22;14839;48.106;11.618;2024-03-02T05:09:55;6.60;94.60
27368;DHT22;14839;48.106;11.618;2024-03-02T05:12:21;6.50;94.60
27368;DHT22;14839;48.106;11.618;2024-03-02T05:15:05;6.50;94.60
27368;DHT22;14839;48.106;11.618;2024-03-02T05:17:32;6.50;94.60
27368;DHT22;14839;48.106;11.618;2024-03-02T05:19:58;6.50;94.60
27368;DHT22;14839;48.106;11.618;2024-03-02T05:22:24;6.50;94.60
27368;DHT22;14839;48.106;11.618;2024-03-02T05:24:49;6.50;94.60
27368;DHT22;14839;48.106;11.618;2024-03-02T05:27:15;6.50;94.60
27368;DHT22;14839;48.106;11.618;2024-03-02T05:29:41;6.50;94.60
27368;DHT22;14839;48.106;11.618;2024-03-02T05:32:06;6.50;94.60
27368;DHT22;14839;48.106;11.618;2024-03-02T05:34:32;6.50;94.60
27368;DHT22;14839;48.106;11.618;2024-03-02T05:37:00;6.50;94.60
27368;DHT22;14839;48.106;11.618;2024-03-02T05:39:26;6.50;94.60
27368;DHT22;14839;48.106;11.618;2024-03-02T05:41:52;6.60;94.60
27368;DHT22;14839;48.106;11.618;2024-03-02T05:44:17;6.70;94.60
27368;DHT22;14839;48.106;11.618;2024-03-02T05:46:44;6.80;94.60
27368;DHT22;14839;48.106;11.618;2024-03-02T05:49:10;6.80;94.60
27368;DHT22;14839;48.106;11.618;2024-03-02T05:51:35;6.80;94.60
27368;DHT22;14839;48.106;11.618;2024-03-02T05:54:01;6.80;94.60
27368;DHT22;14839;48.106;11.618;2024-03-02T05:56:27;6.70;94.60
27368;DHT22;14839;48.106;11.618;2024-03-02T05:58:53;6.70;94.60
27368;DHT22;14839;48.106;11.618;2024-03-02T06:01:26;6.60;94.60
27368;DHT22;14839;48.106;11.618;2024-03-02T06:03:56;6.50;94.60
27368;DHT22;14839;48.106;11.618;2024-03-02T06:06:23;6.60;94.60
27368;DHT22;14839;48.106;11.618;2024-03-02T06:08:48;6.60;94.60
27368;DHT22;14839;48.106;11.618;2024-03-02T06:11:14;6.60;94.60
27368;DHT22;14839;48.106;11.618;2024-03-02T06:13:39;6.60;94.60
27368;DHT22;14839;48.106;11.618;2024-03-02T06:16:05;6.50;94.60
27368;DHT22;14839;48.106;11.618;2024-03-02T06:18:31;6.50;94.60
27368;DHT22;14839;48.106;11.618;2024-03-02T06:20:56;6.60;94.60
27368;DHT22;14839;48.106;11.618;2024-03-02T06:23:22;6.60;94.60
27368;DHT22;14839;48.106;11.618;2024-03-02T06:25:47;6.60;94.60
27368;DHT22;14839;48.106;11.618;2024-03-02T06:28:13;6.60;94.60
27368;DHT22;14839;48.106;11.618;2024-03-02T06:30:41;6.70;94.60
27368;DHT22;14839;48.106;11.618;2024-03-02T06:33:07;6.90;94.60
27368;DHT22;14839;48.106;11.618;2024-03-02T06:35:33;7.00;94.60
27368;DHT22;14839;48.106;11.618;2024-03-02T06:37:58;7.10;94.60
27368;DHT22;14839;48.106;11.618;2024-03-02T06:40:24;7.10;94.60
27368;DHT22;14839;48.106;11.618;2024-03-02T06:42:49;7.10;94.60
27368;DHT22;14839;48.106;11.618;2024-03-02T06:45:15;7.20;94.60
27368;DHT22;14839;48.106;11.618;2024-03-02T06:47:41;7.30;94.60
27368;DHT22;14839;48.106;11.618;2024-03-02T06:50:06;7.40;94.60
27368;DHT22;14839;48.106;11.618;2024-03-02T06:52:32;7.40;94.60
27368;DHT22;14839;48.106;11.618;2024-03-02T06:54:58;7.10;94.60
27368;DHT22;14839;48.106;11.618;2024-03-02T06:57:23;7.00;94.60
27368;DHT22;14839;48.106;11.618;2024-03-02T06:59:50;7.10;94.60
27368;DHT22;14839;48.106;11.618;2024-03-02T07:02:16;7.10;94.60
27368;DHT22;14839;48.106;11.618;2024-03-02T07:04:42;7.20;94.60
27368;DHT22;14839;48.106;11.618;2024-03-02T07:07:08;7.10;94.60
27368;DHT22;14839;48.106;11.618;2024-03-02T07:09:33;7.20;94.60
27368;DHT22;14839;48.106;11.618;2024-03-02T07:11:59;7.20;94.60
27368;DHT22;14839;48.106;11.618;2024-03-02T07:14:24;7.40;94.60
27368;DHT22;14839;48.106;11.618;2024-03-02T07:17:10;7.60;94.60
27368;DHT22;14839;48.106;11.618;2024-03-02T07:19:35;7.70;94.60
27368;DHT22;14839;48.106;11.618;2024-03-02T07:22:01;7.70;94.60
27368;DHT22;14839;48.106;11.618;2024-03-02T07:24:31;7.80;94.60
27368;DHT22;14839;48.106;11.618;2024-03-02T07:26:56;8.00;94.60
27368;DHT22;14839;48.106;11.618;2024-03-02T07:29:22;7.90;94.60
27368;DHT22;14839;48.106;11.618;2024-03-02T07:31:47;7.90;94.60
27368;DHT22;14839;48.106;11.618;2024-03-02T07:34:13;7.80;94.60
27368;DHT22;14839;48.106;11.618;2024-03-02T07:36:39;7.80;94.60
27368;DHT22;14839;48.106;11.618;2024-03-02T07:39:04;7.80;94.60
27368;DHT22;14839;48.106;11.618;2024-03-02T07:41:30;7.80;94.60
27368;DHT22;14839;48.106;11.618;2024-03-02T07:43:56;7.90;94.60
27368;DHT22;14839;48.106;11.618;2024-03-02T07:46:22;7.80;94.60
27368;DHT22;14839;48.106;11.618;2024-03-02T07:48:47;8.00;94.60
27368;DHT22;14839;48.106;11.618;2024-03-02T07:51:13;8.20;94.60
27368;DHT22;14839;48.106;11.618;2024-03-02T07:53:39;8.40;94.60
27368;DHT22;14839;48.106;11.618;2024-03-02T07:56:05;8.50;94.60
27368;DHT22;14839;48.106;11.618;2024-03-02T07:58:31;8.50;94.60
27368;DHT22;14839;48.106;11.618;2024-03-02T08:00:59;8.50;94.60
27368;DHT22;14839;48.106;11.618;2024-03-02T08:03:26;9.00;94.60
27368;DHT22;14839;48.106;11.618;2024-03-02T08:05:52;9.50;94.60
27368;DHT22;14839;48.106;11.618;2024-03-02T08:08:18;9.60;94.60
27368;DHT22;14839;48.106;11.618;2024-03-02T08:10:44;9.70;94.60
27368;DHT22;14839;48.106;11.618;2024-03-02T08:13:09;10.50;94.60
27368;DHT22;14839;48.106;11.618;2024-03-02T08:15:35;10.20;94.60
27368;DHT22;14839;48.106;11.618;2024-03-02T08:18:00;10.50;94.60
27368;DHT22;14839;48.106;11.618;2024-03-02T08:20:27;10.80;94.60
27368;DHT22;14839;48.106;11.618;2024-03-02T08:22:53;11.30;93.30
27368;DHT22;14839;48.106;11.618;2024-03-02T08:25:20;11.50;93.60
27368;DHT22;14839;48.106;11.618;2024-03-02T08:27:46;11.60;91.20
27368;DHT22;14839;48.106;11.618;2024-03-02T08:30:12;10.80;92.60
27368;DHT22;14839;48.106;11.618;2024-03-02T08:32:38;11.20;91.80
27368;DHT22;14839;48.106;11.618;2024-03-02T08:35:05;11.10;91.70
27368;DHT22;14839;48.106;11.618;2024-03-02T08:37:30;10.90;92.40
27368;DHT22;14839;48.106;11.618;2024-03-02T08:39:56;10.50;93.80
27368;DHT22;14839;48.106;11.618;2024-03-02T08:42:22;10.90;93.00
27368;DHT22;14839;48.106;11.618;2024-03-02T08:44:48;11.20;93.00
27368;DHT22;14839;48.106;11.618;2024-03-02T08:47:14;11.60;91.80
27368;DHT22;14839;48.106;11.618;2024-03-02T08:49:40;11.80;91.90
27368;DHT22;14839;48.106;11.618;2024-03-02T08:52:06;11.50;91.90
27368;DHT22;14839;48.106;11.618;2024-03-02T08:54:31;11.20;91.90
27368;DHT22;14839;48.106;11.618;2024-03-02T08:56:58;10.90;94.20
27368;DHT22;14839;48.106;11.618;2024-03-02T08:59:24;11.10;94.00
27368;DHT22;14839;48.106;11.618;2024-03-02T09:01:50;11.00;93.60
27368;DHT22;14839;48.106;11.618;2024-03-02T09:04:16;11.00;94.10
27368;DHT22;14839;48.106;11.618;2024-03-02T09:06:42;11.50;92.50
27368;DHT22;14839;48.106;11.618;2024-03-02T09:09:08;12.30;90.70
27368;DHT22;14839;48.106;11.618;2024-03-02T09:11:34;12.50;89.60
27368;DHT22;14839;48.106;11.618;2024-03-02T09:13:59;12.30;88.10
27368;DHT22;14839;48.106;11.618;2024-03-02T09:16:25;12.50;88.70
27368;DHT22;14839;48.106;11.618;2024-03-02T09:18:56;12.30;89.00
27368;DHT22;14839;48.106;11.618;2024-03-02T09:21:21;12.20;88.10
27368;DHT22;14839;48.106;11.618;2024-03-02T09:23:48;12.00;89.20
27368;DHT22;14839;48.106;11.618;2024-03-02T09:26:14;11.70;90.50
27368;DHT22;14839;48.106;11.618;2024-03-02T09:28:43;12.10;90.10
27368;DHT22;14839;48.106;11.618;2024-03-02T09:31:09;12.60;90.70
27368;DHT22;14839;48.106;11.618;2024-03-02T09:33:35;13.40;84.40
27368;DHT22;14839;48.106;11.618;2024-03-02T09:36:00;13.80;85.00
27368;DHT22;14839;48.106;11.618;2024-03-02T09:38:26;14.40;80.90
27368;DHT22;14839;48.106;11.618;2024-03-02T09:40:51;14.00;80.00
27368;DHT22;14839;48.106;11.618;2024-03-02T09:43:17;13.90;81.40
27368;DHT22;14839;48.106;11.618;2024-03-02T09:45:44;13.90;81.80
27368;DHT22;14839;48.106;11.618;2024-03-02T09:48:10;14.50;83.00
27368;DHT22;14839;48.106;11.618;2024-03-02T09:50:36;14.90;78.70
27368;DHT22;14839;48.106;11.618;2024-03-02T09:53:01;15.40;77.90
27368;DHT22;14839;48.106;11.618;2024-03-02T09:55:27;15.50;77.30
27368;DHT22;14839;48.106;11.618;2024-03-02T09:57:53;15.50;75.20
27368;DHT22;14839;48.106;11.618;2024-03-02T10:00:19;16.20;74.30
27368;DHT22;14839;48.106;11.618;2024-03-02T10:02:44;16.20;74.20
27368;DHT22;14839;48.106;11.618;2024-03-02T10:05:23;16.10;74.00
27368;DHT22;14839;48.106;11.618;2024-03-02T10:07:59;16.10;75.80
27368;DHT22;14839;48.106;11.618;2024-03-02T10:10:37;15.90;72.20
27368;DHT22;14839;48.106;11.618;2024-03-02T10:13:11;15.30;73.60
27368;DHT22;14839;48.106;11.618;2024-03-02T10:15:38;14.60;79.70
27368;DHT22;14839;48.106;11.618;2024-03-02T10:18:11;15.00;76.90
27368;DHT22;14839;48.106;11.618;2024-03-02T10:20:37;15.40;80.00
27368;DHT22;14839;48.106;11.618;2024-03-02T10:23:10;15.70;76.70
27368;DHT22;14839;48.106;11.618;2024-03-02T10:25:36;15.80;76.30
27368;DHT22;14839;48.106;11.618;2024-03-02T10:28:02;15.80;74.50
27368;DHT22;14839;48.106;11.618;2024-03-02T10:30:30;15.50;73.60
27368;DHT22;14839;48.106;11.618;2024-03-02T10:32:56;15.10;75.40
27368;DHT22;14839;48.106;11.618;2024-03-02T10:35:22;15.00;75.20
27368;DHT22;14839;48.106;11.618;2024-03-02T10:37:52;15.20;75.50
27368;DHT22;14839;48.106;11.618;2024-03-02T10:40:21;14.60;74.80
27368;DHT22;14839;48.106;11.618;2024-03-02T10:42:47;14.30;76.90
27368;DHT22;14839;48.106;11.618;2024-03-02T10:45:15;14.50;77.00
27368;DHT22;14839;48.106;11.618;2024-03-02T10:47:42;15.00;75.50
27368;DHT22;14839;48.106;11.618;2024-03-02T10:50:09;15.50;74.60
27368;DHT22;14839;48.106;11.618;2024-03-02T10:52:35;16.20;72.40
27368;DHT22;14839;48.106;11.618;2024-03-02T10:55:01;16.00;74.50
27368;DHT22;14839;48.106;11.618;2024-03-02T10:57:42;16.10;73.90
27368;DHT22;14839;48.106;11.618;2024-03-02T11:00:12;16.50;72.50
27368;DHT22;14839;48.106;11.618;2024-03-02T11:02:51;16.50;74.30
27368;DHT22;14839;48.106;11.618;2024-03-02T11:05:26;16.80;73.00
27368;DHT22;14839;48.106;11.618;2024-03-02T11:07:56;16.00;73.00
27368;DHT22;14839;48.106;11.618;2024-03-02T11:10:23;15.70;74.60
27368;DHT22;14839;48.106;11.618;2024-03-02T11:12:57;15.00;76.90
27368;DHT22;14839;48.106;11.618;2024-03-02T11:15:25;14.90;77.60
27368;DHT22;14839;48.106;11.618;2024-03-02T11:17:52;15.10;77.30
27368;DHT22;14839;48.106;11.618;2024-03-02T11:20:19;15.20;77.00
27368;DHT22;14839;48.106;11.618;2024-03-02T11:22:45;14.90;78.10
27368;DHT22;14839;48.106;11.618;2024-03-02T11:25:27;14.60;77.00
27368;DHT22;14839;48.106;11.618;2024-03-02T11:33:09;14.70;77.90
27368;DHT22;14839;48.106;11.618;2024-03-02T11:35:40;14.90;76.40
27368;DHT22;14839;48.106;11.618;2024-03-02T11:38:08;14.80;76.10
27368;DHT22;14839;48.106;11.618;2024-03-02T11:40:34;14.60;77.30
27368;DHT22;14839;48.106;11.618;2024-03-02T11:43:00;14.60;76.70
27368;DHT22;14839;48.106;11.618;2024-03-02T11:45:26;14.90;76.10
27368;DHT22;14839;48.106;11.618;2024-03-02T11:47:56;15.10;76.00
27368;DHT22;14839;48.106;11.618;2024-03-02T11:50:48;15.00;75.10
27368;DHT22;14839;48.106;11.618;2024-03-02T11:53:15;14.80;75.70
27368;DHT22;14839;48.106;11.618;2024-03-02T11:55:40;15.10;76.00
27368;DHT22;14839;48.106;11.618;2024-03-02T11:58:07;14.70;75.20
27368;DHT22;14839;48.106;11.618;2024-03-02T12:00:33;14.80;76.10
27368;DHT22;14839;48.106;11.618;2024-03-02T12:03:07;14.90;75.80
27368;DHT22;14839;48.106;11.618;2024-03-02T12:05:33;14.90;75.40
27368;DHT22;14839;48.106;11.618;2024-03-02T12:08:00;14.90;75.50
27368;DHT22;14839;48.106;11.618;2024-03-02T12:10:27;14.80;76.40
27368;DHT22;14839;48.106;11.618;2024-03-02T12:13:03;14.80;76.30
27368;DHT22;14839;48.106;11.618;2024-03-02T12:15:31;14.90;76.40
27368;DHT22;14839;48.106;11.618;2024-03-02T12:18:01;14.80;77.30
27368;DHT22;14839;48.106;11.618;2024-03-02T12:20:28;14.90;77.60
27368;DHT22;14839;48.106;11.618;2024-03-02T12:22:57;14.90;76.90
27368;DHT22;14839;48.106;11.618;2024-03-02T12:25:24;14.80;77.60
27368;DHT22;14839;48.106;11.618;2024-03-02T12:27:52;14.70;78.50
27368;DHT22;14839;48.106;11.618;2024-03-02T12:30:19;14.70;78.10
27368;DHT22;14839;48.106;11.618;2024-03-02T12:32:45;14.70;78.80
27368;DHT22;14839;48.106;11.618;2024-03-02T12:35:12;14.50;79.70
27368;DHT22;14839;48.106;11.618;2024-03-02T12:37:47;14.60;79.60
27368;DHT22;14839;48.106;11.618;2024-03-02T12:40:14;14.30;78.70
27368;DHT22;14839;48.106;11.618;2024-03-02T12:42:41;14.40;79.30
27368;DHT22;14839;48.106;11.618;2024-03-02T12:45:09;14.40;79.10
27368;DHT22;14839;48.106;11.618;2024-03-02T12:47:36;14.10;79.90
27368;DHT22;14839;48.106;11.618;2024-03-02T12:50:02;14.20;80.50
27368;DHT22;14839;48.106;11.618;2024-03-02T12:52:28;14.10;79.70
27368;DHT22;14839;48.106;11.618;2024-03-02T12:54:54;14.30;80.00
27368;DHT22;14839;48.106;11.618;2024-03-02T12:57:28;14.20;80.00
27368;DHT22;14839;48.106;11.618;2024-03-02T13:00:02;14.20;78.80
27368;DHT22;14839;48.106;11.618;2024-03-02T13:02:34;14.20;78.40
27368;DHT22;14839;48.106;11.618;2024-03-02T13:05:00;14.20;79.60
27368;DHT22;14839;48.106;11.618;2024-03-02T13:07:26;14.10;77.30
27368;DHT22;14839;48.106;11.618;2024-03-02T13:09:52;14.10;80.60
27368;DHT22;14839;48.106;11.618;2024-03-02T13:12:19;14.10;80.80
27368;DHT22;14839;48.106;11.618;2024-03-02T13:14:49;14.20;80.80
27368;DHT22;14839;48.106;11.618;2024-03-02T13:17:17;14.30;79.90
27368;DHT22;14839;48.106;11.618;2024-03-02T13:19:53;14.10;77.30
27368;DHT22;14839;48.106;11.618;2024-03-02T13:22:19;14.00;77.30
27368;DHT22;14839;48.106;11.618;2024-03-02T13:24:45;14.10;77.20
27368;DHT22;14839;48.106;11.618;2024-03-02T13:27:11;14.10;77.50
27368;DHT22;14839;48.106;11.618;2024-03-02T13:29:46;14.20;79.10
27368;DHT22;14839;48.106;11.618;2024-03-02T13:32:16;14.00;82.00
27368;DHT22;14839;48.106;11.618;2024-03-02T13:34:42;14.10;82.00
27368;DHT22;14839;48.106;11.618;2024-03-02T13:37:08;14.10;81.80
27368;DHT22;14839;48.106;11.618;2024-03-02T13:39:34;14.20;82.00
27368;DHT22;14839;48.106;11.618;2024-03-02T13:42:12;14.30;81.40
27368;DHT22;14839;48.106;11.618;2024-03-02T13:44:40;14.30;82.90
27368;DHT22;14839;48.106;11.618;2024-03-02T13:47:05;14.00;83.30
27368;DHT22;14839;48.106;11.618;2024-03-02T13:49:31;14.00;84.80
27368;DHT22;14839;48.106;11.618;2024-03-02T13:52:05;14.20;84.50
27368;DHT22;14839;48.106;11.618;2024-03-02T13:54:40;14.00;84.50
27368;DHT22;14839;48.106;11.618;2024-03-02T13:57:07;14.20;83.20
27368;DHT22;14839;48.106;11.618;2024-03-02T13:59:34;14.10;82.30
27368;DHT22;14839;48.106;11.618;2024-03-02T14:02:03;14.20;81.80
27368;DHT22;14839;48.106;11.618;2024-03-02T14:04:31;14.10;81.10
27368;DHT22;14839;48.106;11.618;2024-03-02T14:06:57;14.10;81.10
27368;DHT22;14839;48.106;11.618;2024-03-02T14:09:22;14.10;77.00
27368;DHT22;14839;48.106;11.618;2024-03-02T14:11:50;14.00;76.10
27368;DHT22;14839;48.106;11.618;2024-03-02T14:14:16;13.90;76.60
27368;DHT22;14839;48.106;11.618;2024-03-02T14:16:41;13.80;75.20
27368;DHT22;14839;48.106;11.618;2024-03-02T14:19:07;13.80;75.10
27368;DHT22;14839;48.106;11.618;2024-03-02T14:21:34;13.70;74.20
27368;DHT22;14839;48.106;11.618;2024-03-02T14:24:01;13.70;74.80
27368;DHT22;14839;48.106;11.618;2024-03-02T14:26:29;13.70;74.80
27368;DHT22;14839;48.106;11.618;2024-03-02T14:28:55;13.70;74.50
27368;DHT22;14839;48.106;11.618;2024-03-02T14:31:21;13.70;74.80
27368;DHT22;14839;48.106;11.618;2024-03-02T14:33:46;13.70;74.50
27368;DHT22;14839;48.106;11.618;2024-03-02T14:36:12;13.70;75.70
27368;DHT22;14839;48.106;11.618;2024-03-02T14:38:38;13.80;78.70
27368;DHT22;14839;48.106;11.618;2024-03-02T14:41:04;13.80;77.20
27368;DHT22;14839;48.106;11.618;2024-03-02T14:43:30;13.90;77.30
27368;DHT22;14839;48.106;11.618;2024-03-02T14:45:56;13.90;73.90
27368;DHT22;14839;48.106;11.618;2024-03-02T14:48:22;13.80;73.60
27368;DHT22;14839;48.106;11.618;2024-03-02T14:50:48;13.80;74.60
27368;DHT22;14839;48.106;11.618;2024-03-02T14:53:14;13.80;74.90
27368;DHT22;14839;48.106;11.618;2024-03-02T14:55:39;13.90;74.50
27368;DHT22;14839;48.106;11.618;2024-03-02T14:58:05;13.80;74.20
27368;DHT22;14839;48.106;11.618;2024-03-02T15:00:30;13.80;74.90
27368;DHT22;14839;48.106;11.618;2024-03-02T15:02:56;13.70;75.40
27368;DHT22;14839;48.106;11.618;2024-03-02T15:05:22;13.70;75.20
27368;DHT22;14839;48.106;11.618;2024-03-02T15:07:48;13.70;74.80
27368;DHT22;14839;48.106;11.618;2024-03-02T15:10:13;13.60;75.10
27368;DHT22;14839;48.106;11.618;2024-03-02T15:12:39;13.60;75.20
27368;DHT22;14839;48.106;11.618;2024-03-02T15:15:05;13.60;75.40
27368;DHT22;14839;48.106;11.618;2024-03-02T15:17:30;13.70;75.50
27368;DHT22;14839;48.106;11.618;2024-03-02T15:19:56;13.70;75.80
27368;DHT22;14839;48.106;11.618;2024-03-02T15:22:22;13.60;75.20
27368;DHT22;14839;48.106;11.618;2024-03-02T15:24:47;13.70;75.20
27368;DHT22;14839;48.106;11.618;2024-03-02T15:27:13;13.60;76.00
27368;DHT22;14839;48.106;11.618;2024-03-02T15:29:39;13.50;75.70
27368;DHT22;14839;48.106;11.618;2024-03-02T15:32:05;13.60;75.40
27368;DHT22;14839;48.106;11.618;2024-03-02T15:34:32;13.60;75.10
27368;DHT22;14839;48.106;11.618;2024-03-02T15:36:58;13.50;75.50
27368;DHT22;14839;48.106;11.618;2024-03-02T15:39:25;13.40;76.10
27368;DHT22;14839;48.106;11.618;2024-03-02T15:41:50;13.40;76.70
27368;DHT22;14839;48.106;11.618;2024-03-02T15:44:16;13.30;76.40
27368;DHT22;14839;48.106;11.618;2024-03-02T15:46:42;13.30;76.70
27368;DHT22;14839;48.106;11.618;2024-03-02T15:49:08;13.40;77.80
27368;DHT22;14839;48.106;11.618;2024-03-02T15:51:34;13.30;77.80
27368;DHT22;14839;48.106;11.618;2024-03-02T15:54:01;13.20;78.80
27368;DHT22;14839;48.106;11.618;2024-03-02T15:56:27;13.00;79.40
27368;DHT22;14839;48.106;11.618;2024-03-02T15:58:53;13.00;79.30
27368;DHT22;14839;48.106;11.618;2024-03-02T16:01:18;13.10;79.60
27368;DHT22;14839;48.106;11.618;2024-03-02T16:03:45;13.20;80.20
27368;DHT22;14839;48.106;11.618;2024-03-02T16:06:11;13.20;79.90
27368;DHT22;14839;48.106;11.618;2024-03-02T16:08:37;13.10;80.30
27368;DHT22;14839;48.106;11.618;2024-03-02T16:11:02;13.00;80.60
27368;DHT22;14839;48.106;11.618;2024-03-02T16:13:29;13.00;80.90
27368;DHT22;14839;48.106;11.618;2024-03-02T16:15:55;12.90;81.50
27368;DHT22;14839;48.106;11.618;2024-03-02T16:18:21;12.90;81.10
27368;DHT22;14839;48.106;11.618;2024-03-02T16:20:46;12.70;82.10
27368;DHT22;14839;48.106;11.618;2024-03-02T16:23:12;12.60;82.60
27368;DHT22;14839;48.106;11.618;2024-03-02T16:25:37;12.50;83.20
27368;DHT22;14839;48.106;11.618;2024-03-02T16:28:06;12.40;83.50
27368;DHT22;14839;48.106;11.618;2024-03-02T16:30:32;12.30;84.10
27368;DHT22;14839;48.106;11.618;2024-03-02T16:32:58;12.20;84.80
27368;DHT22;14839;48.106;11.618;2024-03-02T16:35:24;12.10;85.00
27368;DHT22;14839;48.106;11.618;2024-03-02T16:37:49;12.10;84.80
27368;DHT22;14839;48.106;11.618;2024-03-02T16:40:15;12.00;85.30
27368;DHT22;14839;48.106;11.618;2024-03-02T16:42:41;11.90;85.70
27368;DHT22;14839;48.106;11.618;2024-03-02T16:45:06;11.80;86.60
27368;DHT22;14839;48.106;11.618;2024-03-02T16:47:32;11.70;87.20
27368;DHT22;14839;48.106;11.618;2024-03-02T16:49:58;11.60;87.80
27368;DHT22;14839;48.106;11.618;2024-03-02T16:52:24;11.50;88.70
27368;DHT22;14839;48.106;11.618;2024-03-02T16:54:50;11.50;89.00
27368;DHT22;14839;48.106;11.618;2024-03-02T16:57:17;11.50;89.00
27368;DHT22;14839;48.106;11.618;2024-03-02T16:59:43;11.40;89.30
27368;DHT22;14839;48.106;11.618;2024-03-02T17:02:08;11.40;89.60
27368;DHT22;14839;48.106;11.618;2024-03-02T17:04:36;11.30;90.10
27368;DHT22;14839;48.106;11.618;2024-03-02T17:07:02;11.20;90.50
27368;DHT22;14839;48.106;11.618;2024-03-02T17:09:27;11.10;90.70
27368;DHT22;14839;48.106;11.618;2024-03-02T17:11:53;11.10;91.00
27368;DHT22;14839;48.106;11.618;2024-03-02T17:14:19;11.00;91.30
27368;DHT22;14839;48.106;11.618;2024-03-02T17:16:44;10.90;91.60
27368;DHT22;14839;48.106;11.618;2024-03-02T17:19:10;10.90;92.10
27368;DHT22;14839;48.106;11.618;2024-03-02T17:21:35;10.80;92.20
27368;DHT22;14839;48.106;11.618;2024-03-02T17:24:01;10.70;92.80
27368;DHT22;14839;48.106;11.618;2024-03-02T17:26:28;10.60;93.20
27368;DHT22;14839;48.106;11.618;2024-03-02T17:28:54;10.60;93.60
27368;DHT22;14839;48.106;11.618;2024-03-02T17:31:20;10.50;93.80
27368;DHT22;14839;48.106;11.618;2024-03-02T17:33:46;10.50;94.10
27368;DHT22;14839;48.106;11.618;2024-03-02T17:36:11;10.40;94.20
27368;DHT22;14839;48.106;11.618;2024-03-02T17:38:39;10.40;94.50
27368;DHT22;14839;48.106;11.618;2024-03-02T17:41:04;10.30;94.60
27368;DHT22;14839;48.106;11.618;2024-03-02T17:43:30;10.30;94.60
27368;DHT22;14839;48.106;11.618;2024-03-02T17:45:56;10.20;94.60
27368;DHT22;14839;48.106;11.618;2024-03-02T17:48:24;10.20;94.60
27368;DHT22;14839;48.106;11.618;2024-03-02T17:50:50;10.20;94.60
27368;DHT22;14839;48.106;11.618;2024-03-02T17:53:16;10.10;94.60
27368;DHT22;14839;48.106;11.618;2024-03-02T17:55:42;10.10;94.60
27368;DHT22;14839;48.106;11.618;2024-03-02T17:58:07;10.10;94.60
27368;DHT22;14839;48.106;11.618;2024-03-02T18:00:33;10.00;94.60
27368;DHT22;14839;48.106;11.618;2024-03-02T18:02:58;10.00;94.60
27368;DHT22;14839;48.106;11.618;2024-03-02T18:05:24;9.90;94.60
27368;DHT22;14839;48.106;11.618;2024-03-02T18:07:50;9.80;94.60
27368;DHT22;14839;48.106;11.618;2024-03-02T18:10:15;9.70;94.60
27368;DHT22;14839;48.106;11.618;2024-03-02T18:12:41;9.70;94.60
27368;DHT22;14839;48.106;11.618;2024-03-02T18:15:07;9.60;94.60
27368;DHT22;14839;48.106;11.618;2024-03-02T18:17:33;9.50;94.60
27368;DHT22;14839;48.106;11.618;2024-03-02T18:20:00;9.50;94.60
27368;DHT22;14839;48.106;11.618;2024-03-02T18:22:25;9.50;94.60
27368;DHT22;14839;48.106;11.618;2024-03-02T18:24:51;9.40;94.60
27368;DHT22;14839;48.106;11.618;2024-03-02T18:27:17;9.30;94.60
27368;DHT22;14839;48.106;11.618;2024-03-02T18:29:43;9.30;94.60
27368;DHT22;14839;48.106;11.618;2024-03-02T18:32:09;9.30;94.60
27368;DHT22;14839;48.106;11.618;2024-03-02T18:34:34;9.20;94.60
27368;DHT22;14839;48.106;11.618;2024-03-02T18:37:00;9.10;94.60
27368;DHT22;14839;48.106;11.618;2024-03-02T18:39:26;9.10;94.60
27368;DHT22;14839;48.106;11.618;2024-03-02T18:41:51;9.10;94.60
27368;DHT22;14839;48.106;11.618;2024-03-02T18:44:17;9.00;94.60
27368;DHT22;14839;48.106;11.618;2024-03-02T18:46:43;8.90;94.60
27368;DHT22;14839;48.106;11.618;2024-03-02T18:49:08;8.90;94.60
27368;DHT22;14839;48.106;11.618;2024-03-02T18:51:34;8.80;94.60
27368;DHT22;14839;48.106;11.618;2024-03-02T18:54:01;8.70;94.60
27368;DHT22;14839;48.106;11.618;2024-03-02T18:56:27;8.70;94.60
27368;DHT22;14839;48.106;11.618;2024-03-02T18:58:52;8.60;94.60
27368;DHT22;14839;48.106;11.618;2024-03-02T19:01:18;8.60;94.60
27368;DHT22;14839;48.106;11.618;2024-03-02T19:03:45;8.60;94.60
27368;DHT22;14839;48.106;11.618;2024-03-02T19:06:16;8.60;94.60
27368;DHT22;14839;48.106;11.618;2024-03-02T19:08:43;8.50;94.60
27368;DHT22;14839;48.106;11.618;2024-03-02T19:11:15;8.50;94.60
27368;DHT22;14839;48.106;11.618;2024-03-02T19:13:42;8.60;94.60
27368;DHT22;14839;48.106;11.618;2024-03-02T19:16:12;8.60;94.60
27368;DHT22;14839;48.106;11.618;2024-03-02T19:18:39;8.60;94.60
27368;DHT22;14839;48.106;11.618;2024-03-02T19:21:05;8.60;94.60
27368;DHT22;14839;48.106;11.618;2024-03-02T19:23:31;8.50;94.60
27368;DHT22;14839;48.106;11.618;2024-03-02T19:25:56;8.50;94.60
27368;DHT22;14839;48.106;11.618;2024-03-02T19:28:23;8.50;94.60
27368;DHT22;14839;48.106;11.618;2024-03-02T19:30:48;8.40;94.60
27368;DHT22;14839;48.106;11.618;2024-03-02T19:33:14;8.40;94.60
27368;DHT22;14839;48.106;11.618;2024-03-02T19:35:40;8.40;94.60
27368;DHT22;14839;48.106;11.618;2024-03-02T19:38:06;8.30;94.60
27368;DHT22;14839;48.106;11.618;2024-03-02T19:40:33;8.30;94.60
27368;DHT22;14839;48.106;11.618;2024-03-02T19:42:59;8.20;94.60
27368;DHT22;14839;48.106;11.618;2024-03-02T19:45:24;8.20;94.60
27368;DHT22;14839;48.106;11.618;2024-03-02T19:47:50;8.10;94.60
27368;DHT22;14839;48.106;11.618;2024-03-02T19:50:16;8.00;94.60
27368;DHT22;14839;48.106;11.618;2024-03-02T19:52:43;7.90;94.60
27368;DHT22;14839;48.106;11.618;2024-03-02T19:55:09;7.80;94.60
27368;DHT22;14839;48.106;11.618;2024-03-02T19:57:35;7.70;94.60
27368;DHT22;14839;48.106;11.618;2024-03-02T20:00:07;7.60;94.60
27368;DHT22;14839;48.106;11.618;2024-03-02T20:02:33;7.50;94.60
27368;DHT22;14839;48.106;11.618;2024-03-02T20:04:58;7.40;94.60
27368;DHT22;14839;48.106;11.618;2024-03-02T20:07:24;7.30;94.60
27368;DHT22;14839;48.106;11.618;2024-03-02T20:09:49;7.30;94.60
27368;DHT22;14839;48.106;11.618;2024-03-02T20:12:16;7.30;94.60
27368;DHT22;14839;48.106;11.618;2024-03-02T20:14:41;7.20;94.60
27368;DHT22;14839;48.106;11.618;2024-03-02T20:17:09;7.10;94.60
27368;DHT22;14839;48.106;11.618;2024-03-02T20:19:38;7.00;94.60
27368;DHT22;14839;48.106;11.618;2024-03-02T20:22:04;6.90;94.60
27368;DHT22;14839;48.106;11.618;2024-03-02T20:24:30;6.80;94.60
27368;DHT22;14839;48.106;11.618;2024-03-02T20:26:55;6.80;94.60